Time;durP1;ratioP1;P1;durP2;ratioP2;P2;SDS_P1;SDS_P2;PMS_P1;PMS_P2;Temp;Humidity;BMP_temperature;BMP_pressure;BME280_temperature;BME280_humidity;BME280_pressure;Samples;Min_cycle;Max_cycle;Signal;HPM_P1;HPM_P2
2022/03/28 00:01:33;;;;;;;12.80;10.30;;;;;;;10.15;50.14;153965.56;5018983;28;20819;-75
2022/03/28 00:04:08;;;;;;;12.90;8.17;;;;;;;10.11;49.82;153955.19;5034182;28;20435;-75
2022/03/28 00:06:44;;;;;;;10.87;8.23;;;;;;;10.04;49.77;153937.03;5054079;28;20443;-75
2022/03/28 00:09:21;;;;;;;10.87;8.53;;;;;;;9.99;50.13;153925.38;5051768;28;20825;-75
2022/03/28 00:11:56;;;;;;;20.20;9.77;;;;;;;9.92;50.38;153907.28;5067972;28;20455;-74
2022/03/28 00:14:32;;;;;;;12.07;9.73;;;;;;;9.90;50.54;153900.81;5050371;28;20451;-76
2022/03/28 00:17:08;;;;;;;15.50;10.30;;;;;;;9.88;50.47;153895.59;5069576;28;20457;-76
2022/03/28 00:19:43;;;;;;;20.03;10.47;;;;;;;9.83;50.32;153883.97;5053104;28;21016;-75
2022/03/28 00:22:19;;;;;;;15.00;10.17;;;;;;;9.82;50.50;153880.13;5051526;28;20478;-75
2022/03/28 00:24:56;;;;;;;17.20;9.37;;;;;;;9.75;50.34;153864.56;5052192;28;20438;-75
2022/03/28 00:27:31;;;;;;;14.03;9.60;;;;;;;9.71;50.49;153852.94;5017798;28;20542;-75
2022/03/28 00:30:08;;;;;;;16.43;11.37;;;;;;;9.66;50.42;153841.25;5033675;28;20424;-76
2022/03/28 00:32:43;;;;;;;15.73;9.43;;;;;;;9.71;50.16;153854.25;5026631;28;20554;-75
2022/03/28 00:35:19;;;;;;;13.20;9.93;;;;;;;9.72;49.77;153855.50;5045520;28;20453;-75
2022/03/28 00:37:55;;;;;;;17.73;11.80;;;;;;;9.68;50.27;153845.16;5054065;28;20470;-75
2022/03/28 00:40:32;;;;;;;14.33;9.77;;;;;;;9.64;50.19;153836.09;5046791;28;20835;-76
2022/03/28 00:43:09;;;;;;;12.73;9.70;;;;;;;9.67;50.33;153843.88;5049154;28;20455;-75
2022/03/28 00:45:44;;;;;;;16.73;10.10;;;;;;;9.63;50.41;153833.53;5016227;28;20443;-75
2022/03/28 00:48:20;;;;;;;17.97;9.03;;;;;;;9.62;50.14;153830.94;5032425;28;20447;-75
2022/03/28 00:50:57;;;;;;;14.30;9.97;;;;;;;9.57;50.42;153818.00;5031610;28;20479;-75
2022/03/28 00:53:32;;;;;;;15.33;9.20;;;;;;;9.45;50.92;153785.69;5032532;28;20479;-75
2022/03/28 00:56:09;;;;;;;18.13;10.80;;;;;;;9.43;50.81;153781.75;5032406;28;20443;-76
2022/03/28 00:58:45;;;;;;;15.30;10.33;;;;;;;9.39;51.07;153771.44;5032044;28;20479;-75
2022/03/28 01:01:21;;;;;;;15.77;9.17;;;;;;;9.37;51.11;153766.22;5046279;28;20448;-76
2022/03/28 01:03:56;;;;;;;15.20;10.50;;;;;;;9.32;51.41;153753.31;5031734;28;20447;-75
2022/03/28 01:06:32;;;;;;;17.70;10.47;;;;;;;9.28;51.48;153742.97;5039239;28;20974;-76
2022/03/28 01:09:08;;;;;;;14.53;9.60;;;;;;;9.25;51.07;153735.22;5048040;28;20857;-76
2022/03/28 01:11:45;;;;;;;13.00;9.60;;;;;;;9.27;50.62;153740.38;5031658;28;20473;-76
2022/03/28 01:14:21;;;;;;;13.00;10.00;;;;;;;9.28;50.71;153742.97;5016727;28;20467;-76
2022/03/28 01:19:50;;;;;;;13.43;10.07;;;;;;;9.29;50.88;153745.59;5035071;28;20869;-76
2022/03/28 01:22:27;;;;;;;13.87;10.30;;;;;;;9.28;50.82;153742.97;5034632;28;20442;-76
2022/03/28 01:25:06;;;;;;;14.97;10.00;;;;;;;9.27;50.91;153739.06;5035828;28;20442;-75
2022/03/28 01:27:41;;;;;;;13.47;9.60;;;;;;;9.25;50.87;153735.22;5051265;28;20888;-75
2022/03/28 01:30:17;;;;;;;14.27;10.10;;;;;;;9.26;50.74;153737.81;5050202;28;20529;-76
2022/03/28 01:32:53;;;;;;;15.43;11.03;;;;;;;9.25;51.10;153735.22;5051354;28;20786;-76
2022/03/28 01:35:31;;;;;;;16.40;11.20;;;;;;;9.19;50.88;153719.69;5051729;28;20474;-76
2022/03/28 01:38:09;;;;;;;15.80;10.40;;;;;;;9.19;51.20;153719.69;5035525;28;20467;-75
2022/03/28 01:40:46;;;;;;;17.70;10.93;;;;;;;9.15;51.46;153710.66;5034579;28;20454;-76
2022/03/28 01:43:23;;;;;;;16.63;11.20;;;;;;;9.15;51.42;153710.66;5035894;28;20450;-76
2022/03/28 01:45:59;;;;;;;14.57;11.27;;;;;;;9.19;51.56;153719.69;5051463;28;20447;-75
2022/03/28 01:48:34;;;;;;;22.17;12.03;;;;;;;9.16;51.49;153711.91;5047963;28;20451;-75
2022/03/28 01:51:10;;;;;;;14.83;11.20;;;;;;;9.14;51.79;153708.03;5032905;28;20788;-75
2022/03/28 01:53:47;;;;;;;18.40;12.23;;;;;;;9.12;51.98;153701.59;5047495;28;20776;-76
2022/03/28 01:56:22;;;;;;;17.40;11.87;;;;;;;9.13;52.24;153704.19;5031350;28;20467;-76
2022/03/28 01:58:58;;;;;;;13.20;10.90;;;;;;;9.10;52.52;153696.41;5032651;28;20479;-76
2022/03/28 02:01:34;;;;;;;13.70;10.23;;;;;;;9.09;52.98;153693.81;5036222;28;20446;-75
2022/03/28 02:04:09;;;;;;;16.63;11.60;;;;;;;9.04;52.72;153680.88;5035698;28;20435;-76
2022/03/28 02:06:45;;;;;;;13.30;10.03;;;;;;;8.99;53.03;153669.25;5039034;28;20530;-76
2022/03/28 02:09:22;;;;;;;16.60;10.80;;;;;;;8.98;52.99;153665.34;5063862;28;20443;-75
2022/03/28 02:11:57;;;;;;;18.90;11.50;;;;;;;8.95;53.24;153658.91;5050769;28;20439;-76
2022/03/28 02:14:33;;;;;;;13.67;10.67;;;;;;;8.92;53.42;153649.88;5049112;28;20446;-75
2022/03/28 02:17:08;;;;;;;20.40;10.37;;;;;;;8.95;53.46;153657.59;5050541;28;20450;-76
2022/03/28 02:19:44;;;;;;;15.50;10.43;;;;;;;8.99;53.27;153667.97;5045792;28;20823;-76
2022/03/28 02:22:19;;;;;;;16.47;9.97;;;;;;;9.03;53.16;153678.28;5043355;28;20459;-76
2022/03/28 02:24:56;;;;;;;14.43;10.13;;;;;;;9.07;53.05;153688.66;5048038;28;20471;-75
2022/03/28 02:27:32;;;;;;;16.47;10.07;;;;;;;9.06;52.62;153686.06;5036192;28;20455;-75
2022/03/28 02:30:08;;;;;;;12.60;10.00;;;;;;;9.08;52.32;153692.50;5046002;28;20464;-75
2022/03/28 02:32:44;;;;;;;16.17;9.80;;;;;;;9.06;52.43;153686.06;5038874;28;20435;-75
2022/03/28 02:35:19;;;;;;;13.73;9.67;;;;;;;9.01;52.42;153674.44;5066991;28;20505;-75
2022/03/28 02:37:57;;;;;;;13.60;9.87;;;;;;;8.99;52.61;153669.25;5037128;28;20460;-75
2022/03/28 02:40:34;;;;;;;15.03;10.77;;;;;;;8.98;52.92;153665.34;5030873;28;20435;-75
2022/03/28 02:43:10;;;;;;;14.93;8.93;;;;;;;8.97;52.82;153664.09;5035072;28;20925;-76
2022/03/28 02:45:45;;;;;;;18.00;9.83;;;;;;;8.94;52.87;153655.03;5065766;28;20454;-75
2022/03/28 02:48:21;;;;;;;11.83;9.20;;;;;;;8.89;53.30;153643.41;5049221;28;20478;-76
2022/03/28 02:50:57;;;;;;;18.00;12.17;;;;;;;8.86;53.19;153634.34;5051003;28;20426;-76
2022/03/28 02:53:32;;;;;;;14.90;11.47;;;;;;;8.88;53.16;153639.50;5050400;28;20450;-76
2022/03/28 02:56:09;;;;;;;12.87;10.80;;;;;;;8.85;52.80;153631.75;5047858;28;20864;-76
2022/03/28 02:58:45;;;;;;;27.07;12.60;;;;;;;8.78;53.36;153614.97;5049358;28;20487;-76
2022/03/28 03:01:20;;;;;;;15.97;11.47;;;;;;;8.80;53.23;153620.13;5050313;28;20925;-75
2022/03/28 03:03:56;;;;;;;15.73;11.03;;;;;;;8.76;53.32;153608.50;5049532;28;20454;-75
2022/03/28 03:06:32;;;;;;;16.10;11.20;;;;;;;8.75;53.25;153605.91;5049690;28;20423;-76
2022/03/28 03:09:07;;;;;;;12.40;9.73;;;;;;;8.69;52.78;153590.38;5035520;28;20431;-75
2022/03/28 03:11:44;;;;;;;11.00;9.30;;;;;;;8.70;52.66;153592.97;5053490;28;20438;-75
2022/03/28 03:14:20;;;;;;;14.17;9.03;;;;;;;8.71;52.56;153595.56;5036544;28;20455;-75
2022/03/28 03:16:55;;;;;;;12.30;9.47;;;;;;;8.66;52.91;153583.91;5053123;28;20458;-76
2022/03/28 03:19:31;;;;;;;13.87;9.83;;;;;;;8.66;52.65;153582.66;5055746;28;20462;-75
2022/03/28 03:22:08;;;;;;;12.60;9.77;;;;;;;8.60;52.88;153568.44;5069928;28;20794;-76
2022/03/28 03:24:44;;;;;;;14.13;9.77;;;;;;;8.56;53.03;153559.38;5051177;28;20435;-75
2022/03/28 03:27:22;;;;;;;12.23;9.00;;;;;;;8.50;53.38;153543.84;5018641;28;20443;-75
2022/03/28 03:29:57;;;;;;;12.13;9.27;;;;;;;8.45;53.75;153530.91;5033434;28;20467;-75
2022/03/28 03:32:33;;;;;;;14.73;9.93;;;;;;;8.44;53.75;153528.34;5044451;28;20455;-75
2022/03/28 03:35:09;;;;;;;15.87;9.80;;;;;;;8.38;54.13;153512.84;5049798;28;20451;-76
2022/03/28 03:37:45;;;;;;;14.30;10.30;;;;;;;8.35;54.36;153503.78;5031579;28;20454;-76
2022/03/28 03:40:20;;;;;;;14.10;9.87;;;;;;;8.31;54.44;153494.72;5035653;28;20495;-76
2022/03/28 03:42:57;;;;;;;15.30;10.07;;;;;;;8.31;54.14;153493.47;5050162;28;20478;-75
2022/03/28 03:45:33;;;;;;;14.10;7.90;;;;;;;8.24;54.10;153476.59;5049830;28;20493;-75
2022/03/28 03:48:09;;;;;;;13.10;8.90;;;;;;;8.28;54.38;153487.00;5050052;28;20448;-75
2022/03/28 03:50:44;;;;;;;15.40;10.77;;;;;;;8.22;54.37;153471.44;5030959;28;20452;-76
2022/03/28 03:53:20;;;;;;;14.53;9.37;;;;;;;8.19;54.68;153463.66;5039150;28;20447;-75
2022/03/28 03:55:56;;;;;;;14.00;10.03;;;;;;;8.13;54.84;153446.88;5024765;28;20565;-75
2022/03/28 03:58:33;;;;;;;16.57;10.37;;;;;;;8.10;55.15;153440.38;5053655;28;20496;-75
2022/03/28 04:01:09;;;;;;;14.40;10.20;;;;;;;8.04;54.92;153424.91;5066272;28;20443;-75
2022/03/28 04:03:44;;;;;;;12.60;9.77;;;;;;;8.01;55.70;153415.84;5053274;28;20442;-75
2022/03/28 04:06:20;;;;;;;16.10;10.30;;;;;;;7.93;56.15;153397.78;5036027;28;20842;-75
2022/03/28 04:08:55;;;;;;;17.33;10.07;;;;;;;7.88;56.08;153383.56;5033211;28;20463;-75
2022/03/28 04:11:31;;;;;;;15.00;9.20;;;;;;;7.81;56.77;153365.50;5020145;28;20451;-75
2022/03/28 04:14:08;;;;;;;14.70;11.30;;;;;;;7.73;57.44;153344.81;5018453;28;20451;-76
2022/03/28 04:16:44;;;;;;;15.63;9.77;;;;;;;7.65;58.01;153324.16;5033088;28;20439;-75
2022/03/28 04:19:20;;;;;;;18.23;10.20;;;;;;;7.62;57.89;153316.41;5017876;28;20529;-75
2022/03/28 04:21:55;;;;;;;13.57;8.70;;;;;;;7.53;57.85;153294.44;5050104;28;20447;-75
2022/03/28 04:24:31;;;;;;;10.63;8.97;;;;;;;7.52;57.78;153291.81;5041697;28;20451;-76
2022/03/28 04:27:06;;;;;;;14.50;9.83;;;;;;;7.51;57.75;153287.97;5016893;28;20436;-75
2022/03/28 04:29:43;;;;;;;13.57;8.77;;;;;;;7.44;58.22;153269.91;5049784;28;20451;-75
2022/03/28 04:32:19;;;;;;;10.30;8.87;;;;;;;7.42;58.06;153264.69;5066698;28;20870;-75
2022/03/28 04:34:54;;;;;;;12.90;9.83;;;;;;;7.36;58.58;153250.50;5053060;28;20430;-75
2022/03/28 04:37:32;;;;;;;14.43;11.93;;;;;;;7.32;58.48;153241.47;5052594;28;20446;-75
2022/03/28 04:40:11;;;;;;;14.97;10.93;;;;;;;7.26;58.50;153225.97;5051277;28;20466;-75
2022/03/28 04:42:48;;;;;;;16.23;9.87;;;;;;;7.24;59.21;153220.81;5032066;28;20451;-75
2022/03/28 04:45:25;;;;;;;14.17;10.27;;;;;;;7.20;59.21;153210.47;5032683;28;20446;-75
2022/03/28 04:48:01;;;;;;;13.73;9.73;;;;;;;7.14;59.02;153193.72;5033928;28;20525;-74
2022/03/28 04:50:37;;;;;;;12.00;9.20;;;;;;;7.08;59.57;153178.19;5059637;28;20837;-75
2022/03/28 04:53:12;;;;;;;13.17;9.97;;;;;;;7.05;59.62;153171.75;5052430;28;20877;-75
2022/03/28 04:55:48;;;;;;;11.87;9.00;;;;;;;7.02;59.60;153162.69;5053023;28;20422;-74
2022/03/28 04:58:23;;;;;;;14.60;9.50;;;;;;;6.95;59.28;153145.94;5041123;28;20574;-75
2022/03/28 05:01:00;;;;;;;13.80;9.67;;;;;;;6.90;59.00;153131.72;5051587;28;20446;-74
2022/03/28 05:03:36;;;;;;;12.67;9.47;;;;;;;6.88;59.18;153127.88;5067751;28;20454;-75
2022/03/28 05:06:11;;;;;;;19.03;10.00;;;;;;;6.88;59.18;153127.88;5067143;28;20443;-73
2022/03/28 05:08:47;;;;;;;12.77;9.03;;;;;;;6.83;59.25;153114.94;5051995;28;20435;-75
2022/03/28 05:11:22;;;;;;;12.90;9.00;;;;;;;6.85;59.08;153120.13;5050816;28;20450;-75
2022/03/28 05:14:00;;;;;;;12.63;8.60;;;;;;;6.87;58.87;153125.28;5053033;28;20898;-74
2022/03/28 05:16:37;;;;;;;15.67;10.17;;;;;;;6.90;59.36;153133.03;5031928;28;20986;-74
2022/03/28 05:19:12;;;;;;;12.77;9.37;;;;;;;6.85;59.29;153120.13;5031660;28;20459;-75
2022/03/28 05:21:48;;;;;;;16.73;9.60;;;;;;;6.87;59.35;153125.28;5046368;28;20921;-75
2022/03/28 05:24:23;;;;;;;14.07;9.33;;;;;;;6.82;59.81;153111.06;5056513;28;20542;-75
2022/03/28 05:26:59;;;;;;;10.00;7.87;;;;;;;6.80;59.57;153105.91;5048059;28;20450;-75
2022/03/28 05:29:34;;;;;;;11.73;8.70;;;;;;;6.80;59.51;153107.22;5032889;28;20431;-75
2022/03/28 05:32:12;;;;;;;15.07;9.97;;;;;;;6.81;59.69;153109.78;5043990;28;20789;-74
2022/03/28 05:34:47;;;;;;;11.83;8.63;;;;;;;6.82;59.61;153111.06;5032605;28;20447;-74
2022/03/28 05:37:23;;;;;;;13.70;8.97;;;;;;;6.86;60.03;153122.69;5025662;28;20485;-74
2022/03/28 05:39:58;;;;;;;13.27;8.80;;;;;;;6.88;59.78;153126.59;5067196;28;20801;-74
2022/03/28 05:42:34;;;;;;;12.53;9.37;;;;;;;6.91;59.54;153134.34;5062936;28;20450;-75
2022/03/28 05:45:11;;;;;;;13.30;9.97;;;;;;;6.89;59.66;153129.13;5027337;28;20457;-75
2022/03/28 05:47:48;;;;;;;12.73;9.03;;;;;;;6.88;60.74;153126.59;5032528;28;20443;-75
2022/03/28 05:50:23;;;;;;;15.27;9.27;;;;;;;6.92;60.23;153138.19;5036386;28;20423;-75
2022/03/28 05:52:58;;;;;;;14.00;9.60;;;;;;;6.92;60.31;153136.88;5046924;28;20560;-74
2022/03/28 05:55:34;;;;;;;12.00;8.97;;;;;;;6.93;61.14;153140.78;5037284;28;20454;-74
2022/03/28 05:58:10;;;;;;;10.17;7.67;;;;;;;6.96;60.32;153148.53;5030613;28;20479;-74
2022/03/28 06:00:46;;;;;;;13.20;9.03;;;;;;;7.02;60.80;153162.69;5034488;28;20950;-75
2022/03/28 06:03:24;;;;;;;16.63;9.20;;;;;;;7.05;60.13;153171.75;5040834;28;20995;-74
2022/03/28 06:06:02;;;;;;;13.40;9.43;;;;;;;7.10;60.53;153183.34;5056202;28;20998;-74
2022/03/28 06:08:37;;;;;;;15.20;10.23;;;;;;;7.15;59.96;153197.56;5032273;28;20450;-75
2022/03/28 06:11:13;;;;;;;13.77;9.67;;;;;;;7.19;60.77;153206.63;5047819;28;21047;-74
2022/03/28 06:13:48;;;;;;;12.10;9.20;;;;;;;7.27;60.15;153228.56;5032464;28;20542;-73
2022/03/28 06:16:24;;;;;;;13.43;10.07;;;;;;;7.44;60.37;153269.91;5030752;28;20530;-75
2022/03/28 06:19:01;;;;;;;12.00;9.60;;;;;;;7.68;60.14;153331.84;5053738;28;20448;-74
2022/03/28 06:21:36;;;;;;;10.63;8.40;;;;;;;7.97;59.29;153406.78;5032896;28;20454;-75
2022/03/28 06:24:12;;;;;;;13.40;9.57;;;;;;;8.17;58.57;153457.19;5048023;28;20443;-75
2022/03/28 06:26:48;;;;;;;13.80;9.30;;;;;;;8.45;57.80;153530.91;5048131;28;20789;-74
2022/03/28 06:29:23;;;;;;;11.73;9.47;;;;;;;8.67;57.24;153585.22;5030529;28;20443;-75
2022/03/28 06:31:59;;;;;;;17.07;10.90;;;;;;;8.92;57.01;153649.88;5054368;28;20497;-75
2022/03/28 06:34:36;;;;;;;15.23;10.00;;;;;;;9.21;55.80;153724.88;5030192;28;20833;-75
2022/03/28 06:37:11;;;;;;;12.47;9.20;;;;;;;9.37;55.28;153766.22;5029666;28;20455;-75
2022/03/28 06:39:47;;;;;;;16.00;10.73;;;;;;;9.59;55.01;153823.16;5039212;28;20463;-75
2022/03/28 06:42:23;;;;;;;12.80;10.07;;;;;;;9.67;54.54;153842.56;5035533;28;20446;-75
2022/03/28 06:44:58;;;;;;;14.43;9.80;;;;;;;9.94;53.96;153911.16;5068079;28;20451;-75
2022/03/28 06:47:34;;;;;;;15.30;11.80;;;;;;;10.04;53.60;153938.34;5055512;28;20813;-75
2022/03/28 06:50:11;;;;;;;11.10;9.10;;;;;;;10.25;53.30;153992.75;5051999;28;20442;-76
2022/03/28 06:52:46;;;;;;;14.47;10.30;;;;;;;10.34;52.70;154014.75;5070510;28;20450;-75
2022/03/28 06:55:23;;;;;;;20.13;10.57;;;;;;;10.51;52.57;154058.75;5050154;28;20541;-76
2022/03/28 06:57:58;;;;;;;13.47;9.77;;;;;;;10.81;51.91;154136.47;5025798;28;20524;-75
2022/03/28 07:00:34;;;;;;;14.97;10.80;;;;;;;10.96;51.50;154175.31;5034323;28;20503;-75
2022/03/28 07:03:10;;;;;;;19.03;10.87;;;;;;;11.13;50.84;154216.75;5043933;28;20463;-75
2022/03/28 07:05:46;;;;;;;23.13;11.43;;;;;;;11.23;50.48;154243.97;5032216;28;20542;-76
2022/03/28 07:08:22;;;;;;;18.13;10.53;;;;;;;11.37;50.20;154278.94;5032894;28;20451;-75
2022/03/28 07:10:58;;;;;;;19.03;11.53;;;;;;;11.66;49.61;154352.78;5071034;28;20518;-78
2022/03/28 07:13:33;;;;;;;13.10;10.03;;;;;;;11.71;49.08;154367.09;5031461;28;20542;-76
2022/03/28 07:16:09;;;;;;;14.03;10.77;;;;;;;11.88;48.82;154409.88;5021075;28;20454;-75
2022/03/28 07:18:44;;;;;;;16.07;10.83;;;;;;;12.13;48.38;154475.97;5042769;28;20536;-75
2022/03/28 07:21:21;;;;;;;12.43;10.33;;;;;;;12.11;48.52;154470.81;5050417;28;20471;-75
2022/03/28 07:23:57;;;;;;;14.43;9.93;;;;;;;12.31;48.49;154521.34;5031763;28;20454;-75
2022/03/28 07:26:32;;;;;;;15.13;10.40;;;;;;;12.56;47.94;154584.91;5035080;28;20431;-75
2022/03/28 07:29:08;;;;;;;12.20;10.87;;;;;;;12.82;46.92;154652.31;5047524;28;20479;-75
2022/03/28 07:31:56;;;;;;;19.00;10.43;;;;;;;13.04;46.47;154709.44;5041754;28;20482;-75
2022/03/28 07:34:34;;;;;;;13.00;9.97;;;;;;;13.50;44.99;154826.25;5048291;28;20447;-75
2022/03/28 07:37:13;;;;;;;14.40;10.87;;;;;;;13.62;44.92;154858.69;5049268;28;20455;-76
2022/03/28 07:39:49;;;;;;;16.93;10.80;;;;;;;13.99;44.15;154953.44;5050353;28;20549;-75
2022/03/28 07:42:24;;;;;;;14.83;11.30;;;;;;;14.10;43.71;154982.03;5035573;28;20525;-75
2022/03/28 07:45:00;;;;;;;14.27;11.53;;;;;;;14.33;43.12;155041.78;5049393;28;20953;-75
2022/03/28 07:47:36;;;;;;;12.67;9.93;;;;;;;14.70;43.28;155135.28;5044046;28;20451;-77
2022/03/28 07:50:12;;;;;;;16.50;11.20;;;;;;;14.75;42.56;155149.56;5044549;28;20859;-75
2022/03/28 07:52:50;;;;;;;15.10;11.23;;;;;;;15.02;42.26;155219.75;5049480;28;20522;-75
2022/03/28 07:55:26;;;;;;;19.03;10.87;;;;;;;15.30;41.13;155291.22;5049607;28;20451;-76
2022/03/28 07:58:03;;;;;;;13.80;11.23;;;;;;;15.53;40.95;155351.06;5048251;28;20562;-75
2022/03/28 08:00:40;;;;;;;13.27;10.77;;;;;;;15.82;40.68;155425.13;5032668;28;20498;-75
2022/03/28 08:03:15;;;;;;;17.20;11.23;;;;;;;16.08;39.90;155491.44;5029756;28;20537;-76
2022/03/28 08:05:53;;;;;;;17.40;12.03;;;;;;;16.16;39.49;155512.25;5037582;28;20447;-76
2022/03/28 08:08:32;;;;;;;15.47;12.70;;;;;;;16.37;38.64;155566.84;5034561;28;20459;-76
2022/03/28 08:11:09;;;;;;;17.10;11.20;;;;;;;16.52;38.94;155605.88;5053051;28;20439;-76
2022/03/28 08:13:44;;;;;;;15.10;12.00;;;;;;;16.55;38.34;155613.72;5049566;28;20541;-76
2022/03/28 08:16:20;;;;;;;14.77;12.67;;;;;;;16.68;37.84;155647.53;5036017;28;20434;-76
2022/03/28 08:18:55;;;;;;;19.77;12.00;;;;;;;16.82;37.33;155684.00;5053889;28;20458;-76
2022/03/28 08:21:31;;;;;;;17.17;12.37;;;;;;;16.99;37.71;155728.25;5037162;28;20487;-76
2022/03/28 08:24:08;;;;;;;17.80;12.30;;;;;;;17.05;36.73;155742.53;5047835;28;20779;-76
2022/03/28 08:26:43;;;;;;;18.77;12.53;;;;;;;16.95;37.08;155716.50;5021683;28;20452;-76
2022/03/28 08:29:19;;;;;;;17.87;13.43;;;;;;;17.26;36.79;155795.91;5051016;28;20450;-76
2022/03/28 08:31:55;;;;;;;19.80;12.53;;;;;;;17.21;36.80;155782.91;5029763;28;20474;-76
2022/03/28 08:34:30;;;;;;;14.27;12.77;;;;;;;17.26;36.49;155797.16;5049951;28;20451;-76
2022/03/28 08:37:06;;;;;;;21.17;12.67;;;;;;;17.45;36.79;155846.63;5042151;28;20776;-76
2022/03/28 08:39:43;;;;;;;18.00;13.20;;;;;;;17.55;36.61;155871.47;5051490;28;20447;-76
2022/03/28 08:42:19;;;;;;;18.80;12.90;;;;;;;17.60;36.78;155884.47;5035605;28;20440;-76
2022/03/28 08:44:55;;;;;;;18.93;13.13;;;;;;;17.64;36.90;155894.84;5044404;28;20450;-76
2022/03/28 08:47:31;;;;;;;15.90;13.17;;;;;;;17.81;36.25;155939.16;5035411;28;20447;-76
2022/03/28 08:50:07;;;;;;;18.47;12.80;;;;;;;17.76;36.20;155926.13;5046894;28;20821;-76
2022/03/28 08:52:43;;;;;;;18.27;13.83;;;;;;;17.65;37.16;155897.47;5042408;28;20462;-75
2022/03/28 08:55:21;;;;;;;15.13;13.10;;;;;;;17.59;37.35;155881.84;5050789;28;20769;-76
2022/03/28 08:57:56;;;;;;;17.80;12.30;;;;;;;17.62;37.23;155890.97;5031728;28;20844;-74
2022/03/28 09:00:32;;;;;;;19.33;14.07;;;;;;;17.52;37.29;155863.59;5044885;28;20981;-74
2022/03/28 09:03:08;;;;;;;15.70;12.20;;;;;;;17.41;37.46;155834.94;5042181;28;20810;-75
2022/03/28 09:05:47;;;;;;;18.07;13.17;;;;;;;17.31;38.00;155810.22;5032956;28;20447;-75
2022/03/28 09:08:24;;;;;;;20.70;15.07;;;;;;;17.39;37.87;155829.75;5038334;28;20454;-75
2022/03/28 09:11:20;;;;;;;20.50;13.27;;;;;;;17.93;36.92;155970.38;5047349;28;20463;-74
2022/03/28 09:13:56;;;;;;;17.63;13.60;;;;;;;17.74;37.37;155920.88;5047924;28;20439;-74
2022/03/28 09:16:34;;;;;;;15.83;13.20;;;;;;;17.56;37.58;155875.34;5059110;28;20468;-75
2022/03/28 09:19:11;;;;;;;18.73;14.03;;;;;;;17.98;36.76;155983.38;5026831;28;20487;-74
2022/03/28 09:21:51;;;;;;;16.50;13.03;;;;;;;17.84;37.46;155945.66;5031551;28;20966;-75
2022/03/28 09:24:31;;;;;;;15.00;13.10;;;;;;;17.91;37.30;155963.88;5047281;28;20513;-75
2022/03/28 09:27:13;;;;;;;17.67;13.50;;;;;;;18.29;37.05;156062.84;5050388;28;20450;-74
2022/03/28 09:29:56;;;;;;;19.83;13.70;;;;;;;18.06;37.35;156002.91;5041737;28;20447;-74
2022/03/28 09:32:33;;;;;;;19.77;14.20;;;;;;;18.23;36.77;156047.22;5029372;28;20563;-74
2022/03/28 09:35:12;;;;;;;18.40;13.27;;;;;;;18.02;37.35;155993.81;5028410;28;20470;-75
2022/03/28 09:37:52;;;;;;;20.77;14.07;;;;;;;17.93;37.80;155969.06;5036074;28;20459;-75
2022/03/28 09:40:31;;;;;;;19.40;14.00;;;;;;;17.84;38.46;155946.97;5050082;28;20473;-74
2022/03/28 09:43:17;;;;;;;17.80;14.03;;;;;;;18.00;37.14;155988.59;5050391;28;20446;-75
2022/03/28 09:45:53;;;;;;;19.53;14.17;;;;;;;18.22;37.27;156044.59;5040108;28;20455;-75
2022/03/28 09:48:32;;;;;;;19.30;14.37;;;;;;;18.19;37.69;156038.09;5031636;28;20498;-75
2022/03/28 09:51:09;;;;;;;20.23;13.63;;;;;;;17.99;36.99;155986.00;5031162;28;20566;-74
2022/03/28 09:53:45;;;;;;;22.00;13.03;;;;;;;18.08;37.58;156009.41;5045120;28;20447;-75
2022/03/28 09:56:20;;;;;;;19.03;13.87;;;;;;;18.17;37.04;156032.88;5047858;28;20488;-74
2022/03/28 09:58:59;;;;;;;21.23;14.83;;;;;;;18.14;37.85;156025.06;5050214;28;20548;-74
2022/03/28 10:01:39;;;;;;;17.40;13.63;;;;;;;18.00;38.30;155987.31;5034932;28;20458;-77
2022/03/28 10:04:16;;;;;;;18.30;15.23;;;;;;;17.72;39.52;155915.69;5047092;28;20439;-75
2022/03/28 10:06:51;;;;;;;21.10;15.40;;;;;;;17.57;39.52;155877.97;5045721;28;20442;-75
2022/03/28 10:09:27;;;;;;;18.60;14.57;;;;;;;17.39;39.22;155829.75;5062514;28;20451;-74
2022/03/28 10:12:03;;;;;;;16.73;13.80;;;;;;;17.45;40.18;155845.34;5031198;28;20537;-75
2022/03/28 10:14:40;;;;;;;19.53;14.00;;;;;;;17.74;38.59;155920.88;5064236;28;20534;-74
2022/03/28 10:17:16;;;;;;;16.17;13.70;;;;;;;17.91;38.51;155965.16;5045938;28;20459;-74
2022/03/28 10:19:51;;;;;;;21.10;14.00;;;;;;;17.81;38.23;155939.16;5048471;28;20442;-74
2022/03/28 10:22:30;;;;;;;20.87;13.97;;;;;;;17.88;38.03;155957.34;5050213;28;20495;-74
2022/03/28 10:25:08;;;;;;;23.00;15.30;;;;;;;18.03;38.21;155996.41;5051388;28;20431;-74
2022/03/28 10:27:44;;;;;;;18.90;14.07;;;;;;;17.99;39.10;155986.00;5047167;28;20455;-74
2022/03/28 10:30:24;;;;;;;18.17;13.83;;;;;;;17.88;38.17;155956.03;5034529;28;20454;-75
2022/03/28 10:33:11;;;;;;;16.23;12.93;;;;;;;17.60;39.08;155885.78;5051722;28;20926;-75
2022/03/28 10:35:56;;;;;;;18.40;13.20;;;;;;;17.66;39.04;155900.06;5050426;28;20443;-75
2022/03/28 10:38:32;;;;;;;18.80;13.53;;;;;;;17.99;38.08;155984.69;5048132;28;20487;-75
2022/03/28 10:41:15;;;;;;;29.13;14.20;;;;;;;18.08;38.75;156009.41;5053338;28;20944;-75
2022/03/28 10:43:51;;;;;;;18.73;13.03;;;;;;;18.19;38.23;156036.75;5051480;28;20452;-75
2022/03/28 10:46:35;;;;;;;19.50;14.93;;;;;;;18.15;37.42;156027.69;5041101;28;20438;-75
2022/03/28 10:49:10;;;;;;;18.40;14.87;;;;;;;18.00;39.13;155988.59;5049740;28;20443;-76
2022/03/28 10:51:49;;;;;;;23.00;14.73;;;;;;;17.95;38.54;155974.31;5050664;28;20512;-76
2022/03/28 10:54:38;;;;;;;23.70;14.93;;;;;;;18.08;38.40;156008.16;5041031;28;20854;-76
2022/03/28 10:57:27;;;;;;;20.73;14.60;;;;;;;18.00;38.56;155988.59;5056731;28;20499;-76
2022/03/28 11:00:06;;;;;;;19.53;15.50;;;;;;;17.96;38.38;155976.88;5031665;28;20456;-76
2022/03/28 11:02:49;;;;;;;17.43;13.53;;;;;;;17.94;39.19;155971.69;5022191;28;20443;-76
2022/03/28 11:05:25;;;;;;;16.13;13.30;;;;;;;18.18;37.01;156035.50;5030300;28;20453;-76
2022/03/28 11:08:07;;;;;;;19.37;13.07;;;;;;;18.49;36.87;156113.66;5045990;28;20431;-76
2022/03/28 11:11:13;;;;;;;19.70;13.43;;;;;;;18.66;36.61;156159.31;5035528;28;20864;-76
2022/03/28 11:14:02;;;;;;;16.63;14.43;;;;;;;18.52;36.17;156121.50;5029783;28;20463;-76
2022/03/28 11:16:44;;;;;;;19.40;14.97;;;;;;;18.62;37.01;156147.53;5044965;28;20460;-76
2022/03/28 11:19:27;;;;;;;19.40;13.70;;;;;;;18.37;36.40;156083.69;5045159;28;20447;-76
2022/03/28 11:22:09;;;;;;;18.73;14.60;;;;;;;18.20;36.20;156040.69;5047514;28;20841;-76
2022/03/28 11:24:51;;;;;;;18.40;14.37;;;;;;;18.12;36.58;156018.56;5040494;28;20450;-76
2022/03/28 11:27:31;;;;;;;18.87;14.90;;;;;;;18.07;36.66;156006.84;5043387;28;20455;-76
2022/03/28 11:30:10;;;;;;;19.47;14.17;;;;;;;18.14;35.53;156025.06;5035119;28;20447;-76
2022/03/28 11:32:47;;;;;;;19.70;15.43;;;;;;;18.23;36.15;156047.22;5034891;28;20520;-76
2022/03/28 11:35:24;;;;;;;20.83;14.20;;;;;;;18.17;35.29;156031.56;5042970;28;20455;-76
2022/03/28 11:38:00;;;;;;;20.60;14.23;;;;;;;18.17;35.89;156031.56;5036399;28;20450;-76
2022/03/28 11:40:39;;;;;;;21.73;14.60;;;;;;;18.10;35.44;156013.34;5058448;28;20454;-77
2022/03/28 11:43:16;;;;;;;17.60;14.00;;;;;;;17.98;35.73;155982.06;5038782;28;20607;-76
2022/03/28 11:45:54;;;;;;;19.57;14.00;;;;;;;18.22;35.55;156044.59;5035281;28;20436;-76
2022/03/28 11:48:29;;;;;;;20.77;15.17;;;;;;;18.25;35.13;156053.72;5051462;28;20561;-76
2022/03/28 11:51:16;;;;;;;24.93;14.60;;;;;;;18.30;35.58;156064.13;5055408;28;20415;-76
2022/03/28 11:53:53;;;;;;;16.40;13.70;;;;;;;18.32;34.61;156069.38;5034000;28;20941;-76
2022/03/28 11:56:30;;;;;;;20.97;14.57;;;;;;;18.27;35.39;156056.34;5039309;28;20462;-76
2022/03/28 11:59:08;;;;;;;18.80;15.20;;;;;;;18.32;35.00;156069.38;5048838;28;20475;-76
2022/03/28 12:01:43;;;;;;;17.20;14.27;;;;;;;18.45;34.69;156103.22;5049863;28;20559;-76
2022/03/28 12:04:19;;;;;;;18.63;14.50;;;;;;;18.44;33.89;156101.91;5044455;28;20443;-76